Time;durP1;ratioP1;P1;durP2;ratioP2;P2;SDS_P1;SDS_P2;PMS_P1;PMS_P2;Temp;Humidity;BMP_temperature;BMP_pressure;BME280_temperature;BME280_humidity;BME280_pressure;Samples;Min_cycle;Max_cycle;Signal;HPM_P1;HPM_P2
2022/06/20 00:01:54;;;;;;;;;;;22.90;56.80;;;;;;5029283;28;20373;-78
2022/06/20 00:04:20;;;;;;;;;;;22.90;56.90;;;;;;5032301;28;19913;-78
2022/06/20 00:06:45;;;;;;;;;;;22.90;56.70;;;;;;5051868;28;19910;-78
2022/06/20 00:09:12;;;;;;;;;;;22.90;56.90;;;;;;5048712;28;19913;-77
2022/06/20 00:11:42;;;;;;;;;;;22.80;56.80;;;;;;5040147;28;19917;-79
2022/06/20 00:14:11;;;;;;;;;;;22.80;57.40;;;;;;5040865;28;19916;-79
2022/06/20 00:16:36;;;;;;;;;;;22.90;56.90;;;;;;5039154;28;19913;-79
2022/06/20 00:19:02;;;;;;;;;;;22.80;57.80;;;;;;5051592;28;19932;-76
2022/06/20 00:21:29;;;;;;;;;;;22.80;57.60;;;;;;5051269;28;19909;-80
2022/06/20 00:23:54;;;;;;;;;;;22.80;57.50;;;;;;5034129;28;19913;-80
2022/06/20 00:26:20;;;;;;;;;;;22.80;58.00;;;;;;5036635;28;19909;-79
2022/06/20 00:28:45;;;;;;;;;;;22.70;57.50;;;;;;5020234;28;19917;-79
2022/06/20 00:31:11;;;;;;;;;;;22.70;57.80;;;;;;5029788;28;19928;-79
2022/06/20 00:33:36;;;;;;;;;;;22.60;58.90;;;;;;5020941;28;19920;-79
2022/06/20 00:36:02;;;;;;;;;;;22.70;58.10;;;;;;5032096;28;20388;-79
2022/06/20 00:38:28;;;;;;;;;;;22.70;57.90;;;;;;5031749;28;19944;-79
2022/06/20 00:40:58;;;;;;;;;;;22.70;58.00;;;;;;5034520;28;19909;-80
2022/06/20 00:43:26;;;;;;;;;;;22.60;58.70;;;;;;5035059;28;19976;-80
2022/06/20 00:45:53;;;;;;;;;;;22.70;58.00;;;;;;5023464;28;20168;-79
2022/06/20 00:48:25;;;;;;;;;;;22.70;59.00;;;;;;5016201;28;19918;-78
2022/06/20 00:50:52;;;;;;;;;;;22.50;58.80;;;;;;5024748;28;20017;-78
2022/06/20 00:53:24;;;;;;;;;;;22.60;58.40;;;;;;5018978;28;20412;-79
2022/06/20 00:55:51;;;;;;;;;;;22.60;58.50;;;;;;5029361;28;19913;-79
2022/06/20 00:58:20;;;;;;;;;;;22.60;58.90;;;;;;5033553;28;20426;-78
2022/06/20 01:00:46;;;;;;;;;;;22.60;58.30;;;;;;5027701;28;19913;-78
2022/06/20 01:03:14;;;;;;;;;;;22.60;58.80;;;;;;5028104;28;19933;-78
2022/06/20 01:05:46;;;;;;;;;;;22.60;58.70;;;;;;5034768;28;19963;-79
2022/06/20 01:08:18;;;;;;;;;;;22.60;58.50;;;;;;5034677;28;19920;-79
2022/06/20 01:11:06;;;;;;;;;;;22.50;58.40;;;;;;5015412;28;19921;-78
2022/06/20 01:13:32;;;;;;;;;;;22.50;58.90;;;;;;5015399;28;19918;-78
2022/06/20 01:15:59;;;;;;;;;;;22.50;59.50;;;;;;5016184;28;19909;-79
2022/06/20 01:18:27;;;;;;;;;;;22.40;59.20;;;;;;5032832;28;19917;-79
2022/06/20 01:20:55;;;;;;;;;;;22.30;60.00;;;;;;5037386;28;19917;-79
2022/06/20 01:23:39;;;;;;;;;;;22.20;59.40;;;;;;5036073;28;19920;-80
2022/06/20 01:26:20;;;;;;;;;;;22.30;59.90;;;;;;5029946;28;20252;-81
2022/06/20 01:28:47;;;;;;;;;;;22.30;60.00;;;;;;5028758;28;19944;-79
2022/06/20 01:31:13;;;;;;;;;;;22.30;59.70;;;;;;5036802;28;19921;-78
2022/06/20 01:33:39;;;;;;;;;;;22.20;60.50;;;;;;5030385;28;20362;-79
2022/06/20 01:38:49;;;;;;;;;;;22.20;60.00;;;;;;5033694;28;20282;-79
2022/06/20 01:44:01;;;;;;;;;;;22.20;60.40;;;;;;5038872;28;19951;-79
2022/06/20 01:46:28;;;;;;;;;;;22.20;60.60;;;;;;5034404;28;20280;-78
2022/06/20 01:48:55;;;;;;;;;;;22.10;60.60;;;;;;5020888;28;19925;-78
2022/06/20 01:51:25;;;;;;;;;;;22.00;61.00;;;;;;5028470;28;19913;-78
2022/06/20 01:53:52;;;;;;;;;;;21.90;61.10;;;;;;5031929;28;19913;-78
2022/06/20 01:56:18;;;;;;;;;;;21.90;61.20;;;;;;5029563;28;19921;-78
2022/06/20 01:58:59;;;;;;;;;;;21.90;62.10;;;;;;5030594;28;19980;-79
2022/06/20 02:01:25;;;;;;;;;;;21.80;62.00;;;;;;5030137;28;19914;-79
2022/06/20 02:03:51;;;;;;;;;;;21.80;62.40;;;;;;5033478;28;19910;-79
2022/06/20 02:06:17;;;;;;;;;;;21.80;62.40;;;;;;5034516;28;19913;-79
2022/06/20 02:08:44;;;;;;;;;;;21.80;62.00;;;;;;5025436;28;19924;-79
2022/06/20 02:11:16;;;;;;;;;;;21.70;62.30;;;;;;5032262;28;20000;-78
2022/06/20 02:13:43;;;;;;;;;;;21.70;62.80;;;;;;5031063;28;19917;-78
2022/06/20 02:16:10;;;;;;;;;;;21.70;62.60;;;;;;5029498;28;19939;-78
2022/06/20 02:18:38;;;;;;;;;;;21.70;63.40;;;;;;5034445;28;20016;-79
2022/06/20 02:21:05;;;;;;;;;;;21.60;62.40;;;;;;5035104;28;19909;-79
2022/06/20 02:23:32;;;;;;;;;;;21.60;63.10;;;;;;5034788;28;19917;-80
2022/06/20 02:25:59;;;;;;;;;;;21.60;63.10;;;;;;5036991;28;19955;-80
2022/06/20 02:28:35;;;;;;;;;;;21.60;62.60;;;;;;5036404;28;19913;-79
2022/06/20 02:31:03;;;;;;;;;;;21.70;62.50;;;;;;5021641;28;19968;-79
2022/06/20 02:33:29;;;;;;;;;;;21.70;62.40;;;;;;5020916;28;20000;-79
2022/06/20 02:35:56;;;;;;;;;;;21.70;62.50;;;;;;5035048;28;20059;-79
2022/06/20 02:38:21;;;;;;;;;;;21.70;62.90;;;;;;5032750;28;19971;-79
2022/06/20 02:40:51;;;;;;;;;;;21.70;62.30;;;;;;5036583;28;19910;-79
2022/06/20 02:43:25;;;;;;;;;;;21.60;62.70;;;;;;5036748;28;19909;-78
2022/06/20 02:45:52;;;;;;;;;;;21.70;61.80;;;;;;5038054;28;19915;-80
2022/06/20 02:48:18;;;;;;;;;;;21.80;61.10;;;;;;5023418;28;20289;-80
2022/06/20 02:50:47;;;;;;;;;;;21.90;60.70;;;;;;5031456;28;20293;-81
2022/06/20 02:53:19;;;;;;;;;;;22.00;61.80;;;;;;5028510;28;20309;-80
2022/06/20 02:55:46;;;;;;;;;;;21.90;64.00;;;;;;5030553;28;19944;-79
2022/06/20 02:58:15;;;;;;;;;;;21.80;66.50;;;;;;5035327;28;19909;-79
2022/06/20 03:00:57;;;;;;;;;;;21.70;68.10;;;;;;5028120;28;20259;-79
2022/06/20 03:03:36;;;;;;;;;;;21.70;67.10;;;;;;5037148;28;19975;-79
2022/06/20 03:06:03;;;;;;;;;;;21.70;68.80;;;;;;5036817;28;19924;-79
2022/06/20 03:08:30;;;;;;;;;;;21.70;68.30;;;;;;5028086;28;19924;-80
2022/06/20 03:10:57;;;;;;;;;;;21.70;69.90;;;;;;5038817;28;19929;-79
2022/06/20 03:13:22;;;;;;;;;;;21.80;68.90;;;;;;5037758;28;19928;-80
2022/06/20 03:15:49;;;;;;;;;;;21.80;70.60;;;;;;5040166;28;19999;-80
2022/06/20 03:18:16;;;;;;;;;;;21.80;70.00;;;;;;5035523;28;20361;-80
2022/06/20 03:20:42;;;;;;;;;;;21.80;70.50;;;;;;5024081;28;19917;-79
2022/06/20 03:23:16;;;;;;;;;;;21.80;70.60;;;;;;5029434;28;20343;-80
2022/06/20 03:25:42;;;;;;;;;;;21.70;70.50;;;;;;5031444;28;19919;-80
2022/06/20 03:28:15;;;;;;;;;;;21.70;71.70;;;;;;5028776;28;19912;-80
2022/06/20 03:30:41;;;;;;;;;;;21.70;72.70;;;;;;5033243;28;19917;-78
2022/06/20 03:33:11;;;;;;;;;;;21.70;71.50;;;;;;5028144;28;20392;-80
2022/06/20 03:35:38;;;;;;;;;;;21.70;71.00;;;;;;5028318;28;19913;-79
2022/06/20 03:38:05;;;;;;;;;;;21.70;71.00;;;;;;5020700;28;19920;-80
2022/06/20 03:40:31;;;;;;;;;;;21.70;71.30;;;;;;5029591;28;20429;-80
2022/06/20 03:42:58;;;;;;;;;;;21.70;70.80;;;;;;5034965;28;19975;-78
2022/06/20 03:45:27;;;;;;;;;;;21.80;70.60;;;;;;5034574;28;20396;-77
2022/06/20 03:48:04;;;;;;;;;;;21.80;70.90;;;;;;5031302;28;19921;-78
2022/06/20 03:50:35;;;;;;;;;;;21.80;70.90;;;;;;5035982;28;20409;-78
2022/06/20 03:53:10;;;;;;;;;;;21.80;70.90;;;;;;5033230;28;19924;-78
2022/06/20 03:55:54;;;;;;;;;;;21.80;71.10;;;;;;5035286;28;19910;-79
2022/06/20 03:58:26;;;;;;;;;;;21.80;70.40;;;;;;5034565;28;19909;-77
2022/06/20 04:00:57;;;;;;;;;;;21.80;70.40;;;;;;5035306;28;20373;-79
2022/06/20 04:03:22;;;;;;;;;;;21.80;69.40;;;;;;5032770;28;19921;-78
2022/06/20 04:05:51;;;;;;;;;;;21.90;70.30;;;;;;5035028;28;19931;-78
2022/06/20 04:08:21;;;;;;;;;;;21.90;69.60;;;;;;5034819;28;20288;-78
2022/06/20 04:10:58;;;;;;;;;;;21.90;69.30;;;;;;5035204;28;19909;-78
2022/06/20 04:13:23;;;;;;;;;;;22.00;68.10;;;;;;5018546;28;19936;-80
2022/06/20 04:15:52;;;;;;;;;;;22.10;67.10;;;;;;5030669;28;19960;-80
2022/06/20 04:18:30;;;;;;;;;;;22.10;64.00;;;;;;5032211;28;20004;-79
2022/06/20 04:20:59;;;;;;;;;;;22.20;64.20;;;;;;5027562;28;20387;-80
2022/06/20 04:23:38;;;;;;;;;;;22.20;63.70;;;;;;5028859;28;19913;-80
2022/06/20 04:26:04;;;;;;;;;;;22.20;65.60;;;;;;5023792;28;19913;-80
2022/06/20 04:28:34;;;;;;;;;;;22.10;67.50;;;;;;5031815;28;19909;-81
2022/06/20 04:31:09;;;;;;;;;;;22.00;70.60;;;;;;5034331;28;19983;-80
2022/06/20 04:33:37;;;;;;;;;;;21.90;73.40;;;;;;5032604;28;19913;-80
2022/06/20 04:36:06;;;;;;;;;;;21.70;75.10;;;;;;5034369;28;19913;-80
2022/06/20 04:38:38;;;;;;;;;;;21.60;77.20;;;;;;5031913;28;19963;-80
2022/06/20 04:41:09;;;;;;;;;;;21.60;78.20;;;;;;5033635;28;19913;-80
2022/06/20 04:43:55;;;;;;;;;;;21.50;77.70;;;;;;5031818;28;19916;-80
2022/06/20 04:46:26;;;;;;;;;;;21.50;79.50;;;;;;5033000;28;19996;-80
2022/06/20 04:48:51;;;;;;;;;;;21.40;80.20;;;;;;5033046;28;19909;-80
2022/06/20 04:51:24;;;;;;;;;;;21.30;81.40;;;;;;5033115;28;19967;-80
2022/06/20 04:53:49;;;;;;;;;;;21.40;80.70;;;;;;5036117;28;20365;-80
2022/06/20 04:56:25;;;;;;;;;;;21.50;81.60;;;;;;5036927;28;19932;-80
2022/06/20 04:59:13;;;;;;;;;;;21.40;81.40;;;;;;5025362;28;19917;-79
2022/06/20 05:01:39;;;;;;;;;;;21.40;82.50;;;;;;5029089;28;20000;-78
2022/06/20 05:04:07;;;;;;;;;;;21.40;83.30;;;;;;5026228;28;20340;-80
2022/06/20 05:06:35;;;;;;;;;;;21.40;81.60;;;;;;5050743;28;19959;-80
2022/06/20 05:09:04;;;;;;;;;;;21.40;83.00;;;;;;5051584;28;19974;-79
2022/06/20 05:11:33;;;;;;;;;;;21.40;84.40;;;;;;5052220;28;19923;-79
2022/06/20 05:13:59;;;;;;;;;;;21.50;83.80;;;;;;5014024;28;20424;-79
2022/06/20 05:16:27;;;;;;;;;;;21.50;83.20;;;;;;5011989;28;19913;-78
2022/06/20 05:18:55;;;;;;;;;;;21.50;83.00;;;;;;5017911;28;19910;-78
2022/06/20 05:21:31;;;;;;;;;;;21.50;84.20;;;;;;5027866;28;19995;-79
2022/06/20 05:23:59;;;;;;;;;;;21.40;84.00;;;;;;5032886;28;20313;-79
2022/06/20 05:26:32;;;;;;;;;;;21.50;84.40;;;;;;5034498;28;20288;-80
2022/06/20 05:28:58;;;;;;;;;;;21.50;86.10;;;;;;5031401;28;20381;-82
2022/06/20 05:31:36;;;;;;;;;;;21.60;86.30;;;;;;5032118;28;19913;-80
2022/06/20 05:34:11;;;;;;;;;;;21.70;86.40;;;;;;5036019;28;20387;-81
2022/06/20 05:36:46;;;;;;;;;;;21.80;86.60;;;;;;5029824;28;20373;-79
2022/06/20 05:39:15;;;;;;;;;;;21.70;85.70;;;;;;5032251;28;19958;-81
2022/06/20 05:41:41;;;;;;;;;;;21.60;87.40;;;;;;5043909;28;19955;-79
2022/06/20 05:44:13;;;;;;;;;;;21.80;86.00;;;;;;5041597;28;19913;-79
2022/06/20 05:46:42;;;;;;;;;;;21.80;86.70;;;;;;5039241;28;20377;-80
2022/06/20 05:49:11;;;;;;;;;;;21.70;86.00;;;;;;5036156;28;20003;-79
2022/06/20 05:51:38;;;;;;;;;;;21.70;86.40;;;;;;5036977;28;19919;-80
2022/06/20 05:54:05;;;;;;;;;;;21.50;87.60;;;;;;5022565;28;19967;-79
2022/06/20 05:56:33;;;;;;;;;;;21.50;87.60;;;;;;5049996;28;19913;-79
2022/06/20 05:59:00;;;;;;;;;;;21.50;87.90;;;;;;5056216;28;20429;-78
2022/06/20 06:01:30;;;;;;;;;;;21.50;86.60;;;;;;5057037;28;19917;-79
2022/06/20 06:04:04;;;;;;;;;;;21.60;86.20;;;;;;5057403;28;19913;-80
2022/06/20 06:06:35;;;;;;;;;;;21.70;85.80;;;;;;5058272;28;19985;-78
2022/06/20 06:09:04;;;;;;;;;;;21.60;86.10;;;;;;5057185;28;19997;-80
2022/06/20 06:11:42;;;;;;;;;;;21.60;86.30;;;;;;5020023;28;19976;-79
2022/06/20 06:14:13;;;;;;;;;;;21.70;87.40;;;;;;5018602;28;20016;-81
2022/06/20 06:16:48;;;;;;;;;;;21.90;86.80;;;;;;5019784;28;19963;-80
2022/06/20 06:19:24;;;;;;;;;;;22.00;86.60;;;;;;5017954;28;20357;-80
2022/06/20 06:21:51;;;;;;;;;;;22.00;86.50;;;;;;5019473;28;19916;-81
2022/06/20 06:24:19;;;;;;;;;;;21.90;87.40;;;;;;5018754;28;19910;-80
2022/06/20 06:26:46;;;;;;;;;;;22.00;87.60;;;;;;5036415;28;20023;-79
2022/06/20 06:29:19;;;;;;;;;;;22.20;89.10;;;;;;5053569;28;19913;-81
2022/06/20 06:31:46;;;;;;;;;;;22.60;88.20;;;;;;5049879;28;19993;-79
2022/06/20 06:34:18;;;;;;;;;;;22.70;86.20;;;;;;5056562;28;19913;-79
2022/06/20 06:36:49;;;;;;;;;;;22.60;87.10;;;;;;5055357;28;19921;-79
2022/06/20 06:39:17;;;;;;;;;;;22.70;86.30;;;;;;5055037;28;20372;-80
2022/06/20 06:41:47;;;;;;;;;;;23.10;84.90;;;;;;5055124;28;19912;-80
2022/06/20 06:44:33;;;;;;;;;;;23.60;83.30;;;;;;5056433;28;19913;-78
2022/06/20 06:46:59;;;;;;;;;;;23.50;84.60;;;;;;5061646;28;20008;-79
2022/06/20 06:49:36;;;;;;;;;;;23.10;82.70;;;;;;5057705;28;19915;-79
2022/06/20 06:52:17;;;;;;;;;;;23.10;85.50;;;;;;5059238;28;19917;-78
2022/06/20 06:54:53;;;;;;;;;;;23.40;87.00;;;;;;5055989;28;19959;-78
2022/06/20 06:57:21;;;;;;;;;;;23.60;84.70;;;;;;5053740;28;19948;-78
2022/06/20 07:00:13;;;;;;;;;;;23.60;79.80;;;;;;5051712;28;19909;-78
2022/06/20 07:02:41;;;;;;;;;;;23.30;79.10;;;;;;5053263;28;19953;-79
2022/06/20 07:05:14;;;;;;;;;;;24.30;77.90;;;;;;5053448;28;19909;-78
2022/06/20 07:08:00;;;;;;;;;;;25.40;74.10;;;;;;5054883;28;19909;-78
2022/06/20 07:10:44;;;;;;;;;;;25.40;72.30;;;;;;5054238;28;19909;-77
2022/06/20 07:13:17;;;;;;;;;;;24.70;75.40;;;;;;5058987;28;19923;-78
2022/06/20 07:15:45;;;;;;;;;;;24.20;74.60;;;;;;5058981;28;19956;-78
2022/06/20 07:18:33;;;;;;;;;;;24.90;76.00;;;;;;5057196;28;19909;-79
2022/06/20 07:20:59;;;;;;;;;;;26.20;69.70;;;;;;5048820;28;19916;-78
2022/06/20 07:23:24;;;;;;;;;;;26.60;68.60;;;;;;5058550;28;19912;-79
2022/06/20 07:25:50;;;;;;;;;;;27.50;64.70;;;;;;5057683;28;19919;-78
2022/06/20 07:28:40;;;;;;;;;;;28.10;61.60;;;;;;5058212;28;20000;-78
2022/06/20 07:31:11;;;;;;;;;;;28.50;59.40;;;;;;5052810;28;19926;-80
2022/06/20 07:33:51;;;;;;;;;;;28.60;60.80;;;;;;5051272;28;19908;-80
2022/06/20 07:36:19;;;;;;;;;;;28.90;60.50;;;;;;5052897;28;19908;-79
2022/06/20 07:38:57;;;;;;;;;;;29.10;55.50;;;;;;5052453;28;19944;-79
2022/06/20 07:41:25;;;;;;;;;;;29.50;56.30;;;;;;5054061;28;19916;-79
2022/06/20 07:44:00;;;;;;;;;;;29.80;56.10;;;;;;5036433;28;20335;-79
2022/06/20 07:46:46;;;;;;;;;;;29.80;54.80;;;;;;5020077;28;19963;-82
2022/06/20 07:49:17;;;;;;;;;;;30.10;54.60;;;;;;5022101;28;20270;-81
2022/06/20 07:51:45;;;;;;;;;;;30.10;52.90;;;;;;5026951;28;20049;-83
2022/06/20 07:54:16;;;;;;;;;;;30.30;52.40;;;;;;5025459;28;19924;-82
2022/06/20 07:56:47;;;;;;;;;;;30.50;51.80;;;;;;5015210;28;20008;-81
2022/06/20 07:59:27;;;;;;;;;;;30.60;51.50;;;;;;5025823;28;19947;-83
2022/06/20 08:01:57;;;;;;;;;;;30.80;51.20;;;;;;5025555;28;19917;-82
2022/06/20 08:04:29;;;;;;;;;;;30.80;50.60;;;;;;5029987;28;20015;-82
2022/06/20 08:07:01;;;;;;;;;;;30.90;50.20;;;;;;5020478;28;19917;-81
2022/06/20 08:09:30;;;;;;;;;;;31.30;49.90;;;;;;5024685;28;19916;-82
2022/06/20 08:12:04;;;;;;;;;;;31.30;49.40;;;;;;5030663;28;20011;-82
2022/06/20 08:14:45;;;;;;;;;;;31.50;49.40;;;;;;5030332;28;19909;-81
2022/06/20 08:17:12;;;;;;;;;;;31.50;49.10;;;;;;5030293;28;19987;-81
2022/06/20 08:19:38;;;;;;;;;;;31.60;48.70;;;;;;5029532;28;19914;-83
2022/06/20 08:22:08;;;;;;;;;;;31.70;48.60;;;;;;5013283;28;19922;-82
2022/06/20 08:24:41;;;;;;;;;;;31.80;48.30;;;;;;5029367;28;19920;-82
2022/06/20 08:27:08;;;;;;;;;;;31.90;48.00;;;;;;5023309;28;19920;-82
2022/06/20 08:29:35;;;;;;;;;;;32.00;48.00;;;;;;5029843;28;19916;-82
2022/06/20 08:32:15;;;;;;;;;;;32.10;47.60;;;;;;5030739;28;19928;-82
2022/06/20 08:34:48;;;;;;;;;;;32.10;47.40;;;;;;5031152;28;19910;-82
2022/06/20 08:37:29;;;;;;;;;;;32.20;47.10;;;;;;5030899;28;19955;-81
2022/06/20 08:39:55;;;;;;;;;;;32.20;46.90;;;;;;5015764;28;19914;-82
2022/06/20 08:42:20;;;;;;;;;;;32.20;46.80;;;;;;5020660;28;20296;-82
2022/06/20 08:45:05;;;;;;;;;;;32.20;46.60;;;;;;5026872;28;19992;-81
2022/06/20 08:47:49;;;;;;;;;;;32.10;46.40;;;;;;5038036;28;20426;-81
2022/06/20 08:50:14;;;;;;;;;;;32.10;46.40;;;;;;5046549;28;20292;-82
2022/06/20 08:52:52;;;;;;;;;;;32.00;46.50;;;;;;5052861;28;19913;-82
2022/06/20 08:55:35;;;;;;;;;;;32.00;46.50;;;;;;5051849;28;19913;-81
2022/06/20 08:58:10;;;;;;;;;;;31.90;46.50;;;;;;5051954;28;19913;-81
2022/06/20 09:00:54;;;;;;;;;;;31.80;46.50;;;;;;5025919;28;20288;-81
2022/06/20 09:03:31;;;;;;;;;;;31.70;46.70;;;;;;5011765;28;19910;-80
2022/06/20 09:06:00;;;;;;;;;;;31.50;46.40;;;;;;5042234;28;19917;-81
2022/06/20 09:08:34;;;;;;;;;;;31.30;46.70;;;;;;5050624;28;20377;-80
2022/06/20 09:11:09;;;;;;;;;;;31.00;46.90;;;;;;5049960;28;19947;-81
2022/06/20 09:13:53;;;;;;;;;;;30.70;47.20;;;;;;5051126;28;19995;-81
2022/06/20 09:16:27;;;;;;;;;;;30.50;47.40;;;;;;5037422;28;20377;-81
2022/06/20 09:18:52;;;;;;;;;;;30.40;47.30;;;;;;5014531;28;20356;-81
2022/06/20 09:21:26;;;;;;;;;;;30.30;47.30;;;;;;5015217;28;19909;-81
2022/06/20 09:24:11;;;;;;;;;;;30.20;47.60;;;;;;5013781;28;19913;-81
2022/06/20 09:26:51;;;;;;;;;;;30.10;47.70;;;;;;5014082;28;20322;-81
2022/06/20 09:29:23;;;;;;;;;;;30.00;47.70;;;;;;5013469;28;19914;-81
2022/06/20 09:31:53;;;;;;;;;;;29.90;47.70;;;;;;5015649;28;20004;-82
2022/06/20 09:34:37;;;;;;;;;;;29.90;47.80;;;;;;5014628;28;19910;-81
2022/06/20 09:37:14;;;;;;;;;;;29.80;47.80;;;;;;5015613;28;19914;-81
2022/06/20 09:39:46;;;;;;;;;;;29.70;47.90;;;;;;5014578;28;19909;-81
2022/06/20 09:42:27;;;;;;;;;;;29.70;48.00;;;;;;5037356;28;19915;-81
2022/06/20 09:45:09;;;;;;;;;;;29.50;48.00;;;;;;5053496;28;20260;-81
2022/06/20 09:47:50;;;;;;;;;;;29.40;48.20;;;;;;5053208;28;20380;-81
2022/06/20 09:50:41;;;;;;;;;;;29.30;48.20;;;;;;5053253;28;19908;-81
2022/06/20 09:53:07;;;;;;;;;;;29.20;48.40;;;;;;5013473;28;19917;-81
2022/06/20 09:55:44;;;;;;;;;;;29.00;48.50;;;;;;5013581;28;19963;-81
2022/06/20 09:58:18;;;;;;;;;;;28.90;48.90;;;;;;5015776;28;19917;-82
2022/06/20 10:00:51;;;;;;;;;;;28.80;49.00;;;;;;5015773;28;19948;-82
2022/06/20 10:03:35;;;;;;;;;;;28.70;49.20;;;;;;5016240;28;20389;-83
2022/06/20 10:06:20;;;;;;;;;;;28.60;49.40;;;;;;5015967;28;19917;-83
2022/06/20 10:08:57;;;;;;;;;;;28.60;49.50;;;;;;5028831;28;20407;-83
2022/06/20 10:11:33;;;;;;;;;;;28.50;49.40;;;;;;5036130;28;19917;-84
2022/06/20 10:14:10;;;;;;;;;;;28.40;49.50;;;;;;5037746;28;19913;-82
2022/06/20 10:16:36;;;;;;;;;;;28.30;49.80;;;;;;5019229;28;19913;-82
2022/06/20 10:19:01;;;;;;;;;;;28.30;49.80;;;;;;5015261;28;19906;-83
2022/06/20 10:21:34;;;;;;;;;;;28.20;49.80;;;;;;5016757;28;19910;-82
2022/06/20 10:24:09;;;;;;;;;;;28.10;49.80;;;;;;5018682;28;19913;-82
2022/06/20 10:26:53;;;;;;;;;;;28.10;50.10;;;;;;5036983;28;19910;-82
2022/06/20 10:29:23;;;;;;;;;;;28.00;50.20;;;;;;5035425;28;19913;-82
2022/06/20 10:31:54;;;;;;;;;;;27.90;50.10;;;;;;5035873;28;19924;-82
2022/06/20 10:34:28;;;;;;;;;;;27.80;50.20;;;;;;5036818;28;19909;-83
2022/06/20 10:37:03;;;;;;;;;;;27.80;50.30;;;;;;5035757;28;19913;-82
2022/06/20 10:39:58;;;;;;;;;;;27.70;50.40;;;;;;5036091;28;19909;-82
2022/06/20 10:42:39;;;;;;;;;;;27.70;50.40;;;;;;5027293;28;19909;-82
2022/06/20 10:45:13;;;;;;;;;;;27.70;50.50;;;;;;5018025;28;19914;-83
2022/06/20 10:47:42;;;;;;;;;;;27.60;50.30;;;;;;5016244;28;19917;-82
2022/06/20 10:50:13;;;;;;;;;;;27.60;50.50;;;;;;5016384;28;20337;-82
2022/06/20 10:52:41;;;;;;;;;;;27.50;50.40;;;;;;5018664;28;19944;-82
2022/06/20 10:55:20;;;;;;;;;;;27.50;50.60;;;;;;5016240;28;20317;-84
2022/06/20 10:58:04;;;;;;;;;;;27.50;50.50;;;;;;5016040;28;19963;-83
2022/06/20 11:00:33;;;;;;;;;;;27.40;50.80;;;;;;5017000;28;19910;-83
2022/06/20 11:03:19;;;;;;;;;;;27.40;50.70;;;;;;5016440;28;19931;-83
2022/06/20 11:05:55;;;;;;;;;;;27.40;50.60;;;;;;5016084;28;19988;-84
2022/06/20 11:08:24;;;;;;;;;;;27.40;50.60;;;;;;5016195;28;19910;-83
2022/06/20 11:10:59;;;;;;;;;;;27.50;50.50;;;;;;5016017;28;19987;-83
2022/06/20 11:13:28;;;;;;;;;;;27.50;50.40;;;;;;5015770;28;19920;-83
2022/06/20 11:15:58;;;;;;;;;;;27.50;50.40;;;;;;5017413;28;19935;-83
2022/06/20 11:18:23;;;;;;;;;;;27.50;50.30;;;;;;5016076;28;20262;-83
2022/06/20 11:20:59;;;;;;;;;;;27.50;50.40;;;;;;5016436;28;19935;-83
2022/06/20 11:23:44;;;;;;;;;;;27.50;50.40;;;;;;5024377;28;20411;-84
2022/06/20 11:26:18;;;;;;;;;;;27.50;50.30;;;;;;5024997;28;19913;-82
2022/06/20 11:28:47;;;;;;;;;;;27.50;50.40;;;;;;5037854;28;19917;-82
2022/06/20 11:31:21;;;;;;;;;;;27.40;50.40;;;;;;5029380;28;19936;-81
2022/06/20 11:34:08;;;;;;;;;;;27.40;50.60;;;;;;5033780;28;19917;-83
2022/06/20 11:36:39;;;;;;;;;;;27.30;50.60;;;;;;5023924;28;19913;-82
2022/06/20 11:39:12;;;;;;;;;;;27.20;50.70;;;;;;5015312;28;19914;-83
2022/06/20 11:42:04;;;;;;;;;;;27.20;50.80;;;;;;5015722;28;19913;-83
2022/06/20 11:44:42;;;;;;;;;;;27.20;50.90;;;;;;5014444;28;19944;-83
2022/06/20 11:47:20;;;;;;;;;;;27.20;50.80;;;;;;5015135;28;19928;-82
2022/06/20 11:50:04;;;;;;;;;;;27.30;50.80;;;;;;5020852;28;19913;-83
2022/06/20 11:52:49;;;;;;;;;;;27.30;50.70;;;;;;5019951;28;19963;-83
2022/06/20 11:55:32;;;;;;;;;;;27.20;50.80;;;;;;5012958;28;19941;-82
2022/06/20 11:58:16;;;;;;;;;;;27.30;50.80;;;;;;5012965;28;20289;-82
2022/06/20 12:00:51;;;;;;;;;;;27.20;50.80;;;;;;5016103;28;20147;-82
2022/06/20 12:03:39;;;;;;;;;;;27.30;50.70;;;;;;5031146;28;19928;-82
2022/06/20 12:06:06;;;;;;;;;;;27.30;50.60;;;;;;5013503;28;19975;-82
2022/06/20 12:08:36;;;;;;;;;;;27.20;50.80;;;;;;5023581;28;20463;-82
2022/06/20 12:11:20;;;;;;;;;;;27.20;50.70;;;;;;5032840;28;20022;-82
2022/06/20 12:13:45;;;;;;;;;;;27.20;50.80;;;;;;5034516;28;20356;-82
2022/06/20 12:16:17;;;;;;;;;;;27.20;51.40;;;;;;5032565;28;19918;-82
2022/06/20 12:24:32;;;;;;;;;;;27.20;50.80;;;;;;5024821;28;19916;-83
2022/06/20 12:26:57;;;;;;;;;;;27.10;50.80;;;;;;5031717;28;19909;-83
2022/06/20 12:29:24;;;;;;;;;;;27.10;50.90;;;;;;5030388;28;20310;-82
2022/06/20 12:31:57;;;;;;;;;;;27.10;50.90;;;;;;5034120;28;19921;-82
2022/06/20 12:34:42;;;;;;;;;;;27.10;51.00;;;;;;5024060;28;19916;-80
2022/06/20 12:37:24;;;;;;;;;;;27.00;51.10;;;;;;5026426;28;19932;-80
2022/06/20 12:39:53;;;;;;;;;;;27.00;51.20;;;;;;5022869;28;19918;-82
2022/06/20 12:42:37;;;;;;;;;;;27.00;51.30;;;;;;5034692;28;20357;-82
2022/06/20 12:45:08;;;;;;;;;;;27.00;51.30;;;;;;5027921;28;19963;-81
2022/06/20 12:47:42;;;;;;;;;;;27.00;51.30;;;;;;5031977;28;19917;-81
2022/06/20 12:50:11;;;;;;;;;;;27.00;51.20;;;;;;5028207;28;19913;-82
2022/06/20 12:52:52;;;;;;;;;;;27.00;51.10;;;;;;5033280;28;19917;-81
2022/06/20 12:55:26;;;;;;;;;;;27.00;51.20;;;;;;5029771;28;20594;-81
2022/06/20 12:58:11;;;;;;;;;;;26.90;51.30;;;;;;5023427;28;20391;-82
2022/06/20 13:00:41;;;;;;;;;;;26.90;51.50;;;;;;5033373;28;19967;-83
2022/06/20 13:03:17;;;;;;;;;;;26.80;51.60;;;;;;5029928;28;19975;-81
2022/06/20 13:05:43;;;;;;;;;;;26.70;51.70;;;;;;5027836;28;19920;-79
2022/06/20 13:08:08;;;;;;;;;;;26.70;51.70;;;;;;5035712;28;19909;-81
2022/06/20 13:10:43;;;;;;;;;;;26.80;51.80;;;;;;5030085;28;19957;-81
2022/06/20 13:13:23;;;;;;;;;;;26.80;51.50;;;;;;5029076;28;19921;-83
2022/06/20 13:15:51;;;;;;;;;;;26.90;52.20;;;;;;5030547;28;19987;-81
2022/06/20 13:18:32;;;;;;;;;;;26.90;51.50;;;;;;5037181;28;20351;-82
2022/06/20 13:21:10;;;;;;;;;;;26.90;51.40;;;;;;5032322;28;20381;-83
2022/06/20 13:23:54;;;;;;;;;;;26.90;51.50;;;;;;5032925;28;19917;-83
2022/06/20 13:26:27;;;;;;;;;;;26.90;51.50;;;;;;5036391;28;19917;-81
2022/06/20 13:28:57;;;;;;;;;;;26.80;51.50;;;;;;5035505;28;20377;-83
2022/06/20 13:31:31;;;;;;;;;;;26.80;51.60;;;;;;5036217;28;19917;-80
2022/06/20 13:34:01;;;;;;;;;;;26.80;51.70;;;;;;5036274;28;19909;-80
2022/06/20 13:36:40;;;;;;;;;;;26.70;51.70;;;;;;5036947;28;20015;-80
2022/06/20 13:39:25;;;;;;;;;;;26.70;51.70;;;;;;5027711;28;20399;-80
2022/06/20 13:41:54;;;;;;;;;;;26.70;51.70;;;;;;5015193;28;19913;-80
2022/06/20 13:44:25;;;;;;;;;;;26.80;51.70;;;;;;5014290;28;19910;-80
2022/06/20 13:47:00;;;;;;;;;;;26.70;52.30;;;;;;5014877;28;19918;-80
2022/06/20 13:49:33;;;;;;;;;;;26.60;51.80;;;;;;5016671;28;19953;-80
2022/06/20 13:52:07;;;;;;;;;;;26.60;52.00;;;;;;5016385;28;20301;-81
2022/06/20 13:54:36;;;;;;;;;;;26.50;51.90;;;;;;5017561;28;19933;-81
2022/06/20 13:57:21;;;;;;;;;;;26.50;52.10;;;;;;5017668;28;19916;-80
2022/06/20 13:59:54;;;;;;;;;;;26.40;52.10;;;;;;5015772;28;20131;-81
2022/06/20 14:02:41;;;;;;;;;;;26.40;52.20;;;;;;5015573;28;19996;-80
2022/06/20 14:05:17;;;;;;;;;;;26.40;52.30;;;;;;5015386;28;19910;-79
2022/06/20 14:07:45;;;;;;;;;;;26.40;52.40;;;;;;5031315;28;20276;-81
2022/06/20 14:10:19;;;;;;;;;;;26.40;52.50;;;;;;5013746;28;20012;-80
2022/06/20 14:12:47;;;;;;;;;;;26.40;52.50;;;;;;5016941;28;20374;-82
2022/06/20 14:15:24;;;;;;;;;;;26.30;52.70;;;;;;5019412;28;20001;-81
2022/06/20 14:17:59;;;;;;;;;;;26.30;52.80;;;;;;5034250;28;19909;-80
2022/06/20 14:20:31;;;;;;;;;;;26.30;52.80;;;;;;5033447;28;20415;-80
2022/06/20 14:22:58;;;;;;;;;;;26.30;53.10;;;;;;5028172;28;19910;-80
2022/06/20 14:25:27;;;;;;;;;;;26.30;53.40;;;;;;5014369;28;19913;-79
2022/06/20 14:27:54;;;;;;;;;;;26.40;53.40;;;;;;5014227;28;19949;-80
2022/06/20 14:30:25;;;;;;;;;;;26.40;53.30;;;;;;5012682;28;20433;-80
2022/06/20 14:32:55;;;;;;;;;;;26.50;53.00;;;;;;5014512;28;19940;-81
2022/06/20 14:35:39;;;;;;;;;;;26.50;53.00;;;;;;5013704;28;20366;-79
2022/06/20 14:38:10;;;;;;;;;;;26.50;53.60;;;;;;5012772;28;19980;-79
2022/06/20 14:40:37;;;;;;;;;;;26.60;52.90;;;;;;5024898;28;19909;-80
2022/06/20 14:43:13;;;;;;;;;;;26.60;52.50;;;;;;5033695;28;19917;-79
2022/06/20 14:45:47;;;;;;;;;;;26.60;52.50;;;;;;5031489;28;19916;-79
2022/06/20 14:48:21;;;;;;;;;;;26.60;52.60;;;;;;5033755;28;19960;-79
2022/06/20 14:50:51;;;;;;;;;;;26.50;53.30;;;;;;5033004;28;19909;-78
2022/06/20 14:53:34;;;;;;;;;;;26.60;53.50;;;;;;5033107;28;20381;-79
2022/06/20 14:56:00;;;;;;;;;;;26.50;53.30;;;;;;5034612;28;19917;-79
2022/06/20 14:58:30;;;;;;;;;;;26.60;53.00;;;;;;5012855;28;19914;-79